Phoenix, Arizona
Traffic Map
Current Weather Conditions
Phoenix, Arizona
Scattered Clouds
Scattered Clouds
104°
Feels Like: 106°
Wind Chill: 104° Ceiling: Unl
Heat Index: 106° Visibility: 10mi
Dew Point: 61° Wind: 9mph
Humidity: 24% Direction: 310° (NW)
Pressure: 29.78in Gusts: 0mph
Raw Report DataKPHX 291951Z 31008KT 270V330 10SM FEW095 FEW160 SCT250 40/16 A2978 RMK AO2 SLP058 T04000161
Traffic Incident Summary
Active as of:
Severity:
Category:
InformationThere was an issue retrieving the traffic information for this location. Please try a different location or try again shortly.
Advertisements
Track Severe Weather on mobile